sensor_id;sensor_type;location;lat;lon;timestamp;P1;durP1;ratioP1;P2;durP2;ratioP2
83288;SDS011;73193;50.866;5.420;2024-03-02T00:00:41;2.60;;;0.80;;
83288;SDS011;73193;50.866;5.420;2024-03-02T00:02:11;2.00;;;0.82;;
83288;SDS011;73193;50.866;5.420;2024-03-02T00:03:42;1.33;;;0.80;;
83288;SDS011;73193;50.866;5.420;2024-03-02T00:06:50;1.55;;;0.80;;
83288;SDS011;73193;50.866;5.420;2024-03-02T00:08:24;4.45;;;1.23;;
83288;SDS011;73193;50.866;5.420;2024-03-02T00:09:58;1.02;;;0.55;;
83288;SDS011;73193;50.866;5.420;2024-03-02T00:11:29;1.40;;;0.50;;
83288;SDS011;73193;50.866;5.420;2024-03-02T00:13:00;0.60;;;0.40;;
83288;SDS011;73193;50.866;5.420;2024-03-02T00:14:31;1.10;;;0.30;;
83288;SDS011;73193;50.866;5.420;2024-03-02T00:16:02;0.30;;;0.20;;
83288;SDS011;73193;50.866;5.420;2024-03-02T00:17:35;1.08;;;0.43;;
83288;SDS011;73193;50.866;5.420;2024-03-02T00:19:06;1.08;;;0.22;;
83288;SDS011;73193;50.866;5.420;2024-03-02T00:20:39;0.73;;;0.50;;
83288;SDS011;73193;50.866;5.420;2024-03-02T00:22:10;0.20;;;0.20;;
83288;SDS011;73193;50.866;5.420;2024-03-02T00:23:41;0.38;;;0.17;;
83288;SDS011;73193;50.866;5.420;2024-03-02T00:25:12;0.50;;;0.20;;
83288;SDS011;73193;50.866;5.420;2024-03-02T00:26:44;0.22;;;0.20;;
83288;SDS011;73193;50.866;5.420;2024-03-02T00:28:22;0.35;;;0.20;;
83288;SDS011;73193;50.866;5.420;2024-03-02T00:29:54;0.10;;;0.10;;
83288;SDS011;73193;50.866;5.420;2024-03-02T00:31:26;0.47;;;0.38;;
83288;SDS011;73193;50.866;5.420;2024-03-02T00:32:58;0.80;;;0.20;;
83288;SDS011;73193;50.866;5.420;2024-03-02T00:34:29;0.40;;;0.20;;
83288;SDS011;73193;50.866;5.420;2024-03-02T00:36:00;0.30;;;0.10;;
83288;SDS011;73193;50.866;5.420;2024-03-02T00:37:36;0.30;;;0.20;;
83288;SDS011;73193;50.866;5.420;2024-03-02T00:39:06;1.27;;;0.43;;
83288;SDS011;73193;50.866;5.420;2024-03-02T00:40:37;0.40;;;0.20;;
83288;SDS011;73193;50.866;5.420;2024-03-02T00:42:08;0.85;;;0.10;;
83288;SDS011;73193;50.866;5.420;2024-03-02T00:45:24;0.15;;;0.15;;
83288;SDS011;73193;50.866;5.420;2024-03-02T00:46:56;1.20;;;0.20;;
83288;SDS011;73193;50.866;5.420;2024-03-02T00:48:29;0.15;;;0.10;;
83288;SDS011;73193;50.866;5.420;2024-03-02T00:50:01;0.10;;;0.00;;
83288;SDS011;73193;50.866;5.420;2024-03-02T00:51:33;0.10;;;0.10;;
83288;SDS011;73193;50.866;5.420;2024-03-02T00:53:05;0.45;;;0.10;;
83288;SDS011;73193;50.866;5.420;2024-03-02T00:54:40;0.80;;;0.20;;
83288;SDS011;73193;50.866;5.420;2024-03-02T00:56:11;0.35;;;0.15;;
83288;SDS011;73193;50.866;5.420;2024-03-02T00:57:42;0.13;;;0.10;;
83288;SDS011;73193;50.866;5.420;2024-03-02T00:59:14;0.20;;;0.20;;
83288;SDS011;73193;50.866;5.420;2024-03-02T01:00:44;0.95;;;0.17;;
83288;SDS011;73193;50.866;5.420;2024-03-02T01:02:15;0.38;;;0.22;;
83288;SDS011;73193;50.866;5.420;2024-03-02T01:03:45;0.30;;;0.15;;
83288;SDS011;73193;50.866;5.420;2024-03-02T01:05:16;1.38;;;0.20;;
83288;SDS011;73193;50.866;5.420;2024-03-02T01:06:47;0.68;;;0.20;;
83288;SDS011;73193;50.866;5.420;2024-03-02T01:08:18;0.77;;;0.10;;
83288;SDS011;73193;50.866;5.420;2024-03-02T01:09:49;0.35;;;0.20;;
83288;SDS011;73193;50.866;5.420;2024-03-02T01:11:19;0.93;;;0.15;;
83288;SDS011;73193;50.866;5.420;2024-03-02T01:12:52;0.30;;;0.20;;
83288;SDS011;73193;50.866;5.420;2024-03-02T01:14:22;0.40;;;0.10;;
83288;SDS011;73193;50.866;5.420;2024-03-02T01:15:53;1.17;;;0.28;;
83288;SDS011;73193;50.866;5.420;2024-03-02T01:17:23;0.75;;;0.25;;
83288;SDS011;73193;50.866;5.420;2024-03-02T01:18:54;0.80;;;0.20;;
83288;SDS011;73193;50.866;5.420;2024-03-02T01:20:25;0.50;;;0.20;;
83288;SDS011;73193;50.866;5.420;2024-03-02T01:21:55;0.32;;;0.20;;
83288;SDS011;73193;50.866;5.420;2024-03-02T01:23:26;1.17;;;0.20;;
83288;SDS011;73193;50.866;5.420;2024-03-02T01:24:57;0.40;;;0.28;;
83288;SDS011;73193;50.866;5.420;2024-03-02T01:26:28;0.45;;;0.10;;
83288;SDS011;73193;50.866;5.420;2024-03-02T01:27:58;0.32;;;0.20;;
83288;SDS011;73193;50.866;5.420;2024-03-02T01:29:29;0.40;;;0.30;;
83288;SDS011;73193;50.866;5.420;2024-03-02T01:30:59;0.90;;;0.30;;
83288;SDS011;73193;50.866;5.420;2024-03-02T01:32:32;0.30;;;0.22;;
83288;SDS011;73193;50.866;5.420;2024-03-02T01:34:02;0.40;;;0.10;;
83288;SDS011;73193;50.866;5.420;2024-03-02T01:35:33;0.98;;;0.45;;
83288;SDS011;73193;50.866;5.420;2024-03-02T01:37:07;0.20;;;0.10;;
83288;SDS011;73193;50.866;5.420;2024-03-02T01:38:38;0.30;;;0.20;;
83288;SDS011;73193;50.866;5.420;2024-03-02T01:40:08;0.45;;;0.20;;
83288;SDS011;73193;50.866;5.420;2024-03-02T01:43:10;0.22;;;0.17;;
83288;SDS011;73193;50.866;5.420;2024-03-02T01:44:41;0.52;;;0.20;;
83288;SDS011;73193;50.866;5.420;2024-03-02T01:46:12;0.10;;;0.10;;
83288;SDS011;73193;50.866;5.420;2024-03-02T01:47:42;0.30;;;0.30;;
83288;SDS011;73193;50.866;5.420;2024-03-02T01:49:13;0.43;;;0.28;;
83288;SDS011;73193;50.866;5.420;2024-03-02T01:50:44;0.20;;;0.20;;
83288;SDS011;73193;50.866;5.420;2024-03-02T01:52:14;0.25;;;0.10;;
83288;SDS011;73193;50.866;5.420;2024-03-02T01:53:45;0.60;;;0.20;;
83288;SDS011;73193;50.866;5.420;2024-03-02T01:55:16;0.40;;;0.10;;
83288;SDS011;73193;50.866;5.420;2024-03-02T01:56:46;0.63;;;0.20;;
83288;SDS011;73193;50.866;5.420;2024-03-02T01:58:17;0.50;;;0.10;;
83288;SDS011;73193;50.866;5.420;2024-03-02T01:59:48;0.52;;;0.20;;
83288;SDS011;73193;50.866;5.420;2024-03-02T02:01:18;0.30;;;0.00;;
83288;SDS011;73193;50.866;5.420;2024-03-02T02:02:50;0.65;;;0.28;;
83288;SDS011;73193;50.866;5.420;2024-03-02T02:04:21;0.17;;;0.10;;
83288;SDS011;73193;50.866;5.420;2024-03-02T02:05:57;0.65;;;0.25;;
83288;SDS011;73193;50.866;5.420;2024-03-02T02:07:27;0.30;;;0.10;;
83288;SDS011;73193;50.866;5.420;2024-03-02T02:08:58;1.55;;;0.10;;
83288;SDS011;73193;50.866;5.420;2024-03-02T02:10:29;0.20;;;0.10;;
83288;SDS011;73193;50.866;5.420;2024-03-02T02:11:59;0.32;;;0.10;;
83288;SDS011;73193;50.866;5.420;2024-03-02T02:13:31;0.90;;;0.20;;
83288;SDS011;73193;50.866;5.420;2024-03-02T02:15:02;0.10;;;0.10;;
83288;SDS011;73193;50.866;5.420;2024-03-02T02:18:04;0.17;;;0.10;;
83288;SDS011;73193;50.866;5.420;2024-03-02T02:19:34;0.95;;;0.20;;
83288;SDS011;73193;50.866;5.420;2024-03-02T02:21:05;0.28;;;0.10;;
83288;SDS011;73193;50.866;5.420;2024-03-02T02:22:36;0.40;;;0.10;;
83288;SDS011;73193;50.866;5.420;2024-03-02T02:24:07;0.73;;;0.13;;
83288;SDS011;73193;50.866;5.420;2024-03-02T02:25:37;1.90;;;0.30;;
83288;SDS011;73193;50.866;5.420;2024-03-02T02:27:09;0.68;;;0.10;;
83288;SDS011;73193;50.866;5.420;2024-03-02T02:28:45;0.20;;;0.10;;
83288;SDS011;73193;50.866;5.420;2024-03-02T02:30:19;0.13;;;0.10;;
83288;SDS011;73193;50.866;5.420;2024-03-02T02:31:50;0.50;;;0.20;;
83288;SDS011;73193;50.866;5.420;2024-03-02T02:33:21;0.30;;;0.15;;
83288;SDS011;73193;50.866;5.420;2024-03-02T02:34:52;0.20;;;0.10;;
83288;SDS011;73193;50.866;5.420;2024-03-02T02:36:23;0.17;;;0.13;;
83288;SDS011;73193;50.866;5.420;2024-03-02T02:37:54;1.13;;;0.13;;
83288;SDS011;73193;50.866;5.420;2024-03-02T02:39:26;0.35;;;0.10;;
83288;SDS011;73193;50.866;5.420;2024-03-02T02:40:56;0.73;;;0.10;;
83288;SDS011;73193;50.866;5.420;2024-03-02T02:42:27;0.32;;;0.00;;
83288;SDS011;73193;50.866;5.420;2024-03-02T02:43:58;0.40;;;0.20;;
83288;SDS011;73193;50.866;5.420;2024-03-02T02:45:29;0.17;;;0.00;;
83288;SDS011;73193;50.866;5.420;2024-03-02T02:47:00;0.30;;;0.10;;
83288;SDS011;73193;50.866;5.420;2024-03-02T02:48:31;0.28;;;0.10;;
83288;SDS011;73193;50.866;5.420;2024-03-02T02:50:06;0.08;;;0.00;;
83288;SDS011;73193;50.866;5.420;2024-03-02T02:51:37;0.10;;;0.10;;
83288;SDS011;73193;50.866;5.420;2024-03-02T02:53:08;0.13;;;0.13;;
83288;SDS011;73193;50.866;5.420;2024-03-02T02:56:10;1.20;;;0.10;;
83288;SDS011;73193;50.866;5.420;2024-03-02T02:57:41;0.63;;;0.17;;
83288;SDS011;73193;50.866;5.420;2024-03-02T02:59:13;0.82;;;0.10;;
83288;SDS011;73193;50.866;5.420;2024-03-02T03:00:44;0.10;;;0.10;;
83288;SDS011;73193;50.866;5.420;2024-03-02T03:02:15;0.73;;;0.10;;
83288;SDS011;73193;50.866;5.420;2024-03-02T03:03:45;0.10;;;0.10;;
83288;SDS011;73193;50.866;5.420;2024-03-02T03:05:16;0.30;;;0.20;;
83288;SDS011;73193;50.866;5.420;2024-03-02T03:06:47;0.10;;;0.00;;
83288;SDS011;73193;50.866;5.420;2024-03-02T03:08:18;0.20;;;0.10;;
83288;SDS011;73193;50.866;5.420;2024-03-02T03:09:48;0.10;;;0.10;;
83288;SDS011;73193;50.866;5.420;2024-03-02T03:11:19;0.28;;;0.13;;
83288;SDS011;73193;50.866;5.420;2024-03-02T03:12:50;0.10;;;0.10;;
83288;SDS011;73193;50.866;5.420;2024-03-02T03:14:20;1.33;;;0.13;;
83288;SDS011;73193;50.866;5.420;2024-03-02T03:15:51;0.55;;;0.10;;
83288;SDS011;73193;50.866;5.420;2024-03-02T03:17:23;0.98;;;0.20;;
83288;SDS011;73193;50.866;5.420;2024-03-02T03:18:53;1.00;;;0.20;;
83288;SDS011;73193;50.866;5.420;2024-03-02T03:20:24;0.95;;;0.20;;
83288;SDS011;73193;50.866;5.420;2024-03-02T03:21:55;1.48;;;0.10;;
83288;SDS011;73193;50.866;5.420;2024-03-02T03:23:25;0.28;;;0.20;;
83288;SDS011;73193;50.866;5.420;2024-03-02T03:24:56;0.20;;;0.10;;
83288;SDS011;73193;50.866;5.420;2024-03-02T03:26:27;0.30;;;0.10;;
83288;SDS011;73193;50.866;5.420;2024-03-02T03:27:57;0.43;;;0.10;;
83288;SDS011;73193;50.866;5.420;2024-03-02T03:29:28;0.80;;;0.17;;
83288;SDS011;73193;50.866;5.420;2024-03-02T03:30:59;0.60;;;0.10;;
83288;SDS011;73193;50.866;5.420;2024-03-02T03:32:29;0.57;;;0.10;;
83288;SDS011;73193;50.866;5.420;2024-03-02T03:34:00;0.50;;;0.20;;
83288;SDS011;73193;50.866;5.420;2024-03-02T03:35:30;0.20;;;0.20;;
83288;SDS011;73193;50.866;5.420;2024-03-02T03:37:02;0.13;;;0.10;;
83288;SDS011;73193;50.866;5.420;2024-03-02T03:38:32;0.10;;;0.10;;
83288;SDS011;73193;50.866;5.420;2024-03-02T03:40:03;0.20;;;0.10;;
83288;SDS011;73193;50.866;5.420;2024-03-02T03:41:43;0.28;;;0.20;;
83288;SDS011;73193;50.866;5.420;2024-03-02T03:43:13;0.30;;;0.17;;
83288;SDS011;73193;50.866;5.420;2024-03-02T03:44:44;0.73;;;0.28;;
83288;SDS011;73193;50.866;5.420;2024-03-02T03:46:15;0.63;;;0.20;;
83288;SDS011;73193;50.866;5.420;2024-03-02T03:47:46;0.73;;;0.30;;
83288;SDS011;73193;50.866;5.420;2024-03-02T03:49:16;0.50;;;0.20;;
83288;SDS011;73193;50.866;5.420;2024-03-02T03:50:47;0.43;;;0.10;;
83288;SDS011;73193;50.866;5.420;2024-03-02T03:52:18;0.77;;;0.10;;
83288;SDS011;73193;50.866;5.420;2024-03-02T03:53:49;0.15;;;0.10;;
83288;SDS011;73193;50.866;5.420;2024-03-02T03:55:19;0.17;;;0.17;;
83288;SDS011;73193;50.866;5.420;2024-03-02T03:56:50;0.38;;;0.00;;
83288;SDS011;73193;50.866;5.420;2024-03-02T03:58:21;0.45;;;0.10;;
83288;SDS011;73193;50.866;5.420;2024-03-02T03:59:51;0.30;;;0.10;;
83288;SDS011;73193;50.866;5.420;2024-03-02T04:01:22;0.43;;;0.00;;
83288;SDS011;73193;50.866;5.420;2024-03-02T04:02:53;0.25;;;0.10;;
83288;SDS011;73193;50.866;5.420;2024-03-02T04:04:24;0.22;;;0.13;;
83288;SDS011;73193;50.866;5.420;2024-03-02T04:05:54;1.23;;;0.20;;
83288;SDS011;73193;50.866;5.420;2024-03-02T04:07:25;0.55;;;0.20;;
83288;SDS011;73193;50.866;5.420;2024-03-02T04:08:55;0.88;;;0.20;;
83288;SDS011;73193;50.866;5.420;2024-03-02T04:10:26;0.40;;;0.10;;
83288;SDS011;73193;50.866;5.420;2024-03-02T04:11:57;1.02;;;0.10;;
83288;SDS011;73193;50.866;5.420;2024-03-02T04:13:27;0.40;;;0.10;;
83288;SDS011;73193;50.866;5.420;2024-03-02T04:14:58;0.22;;;0.10;;
83288;SDS011;73193;50.866;5.420;2024-03-02T04:16:29;0.90;;;0.30;;
83288;SDS011;73193;50.866;5.420;2024-03-02T04:17:59;0.22;;;0.10;;
83288;SDS011;73193;50.866;5.420;2024-03-02T04:19:30;0.38;;;0.10;;
83288;SDS011;73193;50.866;5.420;2024-03-02T04:21:00;0.45;;;0.13;;
83288;SDS011;73193;50.866;5.420;2024-03-02T04:22:32;0.40;;;0.10;;
83288;SDS011;73193;50.866;5.420;2024-03-02T04:24:04;0.00;;;0.00;;
83288;SDS011;73193;50.866;5.420;2024-03-02T04:25:35;0.90;;;0.10;;
83288;SDS011;73193;50.866;5.420;2024-03-02T04:27:06;0.35;;;0.10;;
83288;SDS011;73193;50.866;5.420;2024-03-02T04:28:37;1.38;;;0.25;;
83288;SDS011;73193;50.866;5.420;2024-03-02T04:30:07;1.67;;;0.32;;
83288;SDS011;73193;50.866;5.420;2024-03-02T04:31:38;0.65;;;0.13;;
83288;SDS011;73193;50.866;5.420;2024-03-02T04:33:09;1.25;;;0.57;;
83288;SDS011;73193;50.866;5.420;2024-03-02T04:34:40;0.15;;;0.10;;
83288;SDS011;73193;50.866;5.420;2024-03-02T04:36:10;0.17;;;0.10;;
83288;SDS011;73193;50.866;5.420;2024-03-02T04:37:41;1.80;;;0.20;;
83288;SDS011;73193;50.866;5.420;2024-03-02T04:39:12;0.55;;;0.20;;
83288;SDS011;73193;50.866;5.420;2024-03-02T04:40:43;0.47;;;0.10;;
83288;SDS011;73193;50.866;5.420;2024-03-02T04:42:13;0.95;;;0.28;;
83288;SDS011;73193;50.866;5.420;2024-03-02T04:43:44;1.83;;;0.10;;
83288;SDS011;73193;50.866;5.420;2024-03-02T04:45:15;0.30;;;0.10;;
83288;SDS011;73193;50.866;5.420;2024-03-02T04:46:45;0.30;;;0.20;;
83288;SDS011;73193;50.866;5.420;2024-03-02T04:48:16;1.55;;;0.20;;
83288;SDS011;73193;50.866;5.420;2024-03-02T04:49:46;0.22;;;0.10;;
83288;SDS011;73193;50.866;5.420;2024-03-02T04:51:17;0.40;;;0.22;;
83288;SDS011;73193;50.866;5.420;2024-03-02T04:52:48;0.25;;;0.17;;
83288;SDS011;73193;50.866;5.420;2024-03-02T04:54:18;0.40;;;0.20;;
83288;SDS011;73193;50.866;5.420;2024-03-02T04:55:49;3.80;;;0.35;;
83288;SDS011;73193;50.866;5.420;2024-03-02T04:57:38;1.02;;;0.30;;
83288;SDS011;73193;50.866;5.420;2024-03-02T04:59:08;0.50;;;0.10;;
83288;SDS011;73193;50.866;5.420;2024-03-02T05:00:39;0.40;;;0.20;;
83288;SDS011;73193;50.866;5.420;2024-03-02T05:02:11;1.08;;;0.25;;
83288;SDS011;73193;50.866;5.420;2024-03-02T05:03:44;0.10;;;0.10;;
83288;SDS011;73193;50.866;5.420;2024-03-02T05:05:15;0.75;;;0.10;;
83288;SDS011;73193;50.866;5.420;2024-03-02T05:06:45;1.02;;;0.20;;
83288;SDS011;73193;50.866;5.420;2024-03-02T05:08:22;1.48;;;0.40;;
83288;SDS011;73193;50.866;5.420;2024-03-02T05:09:53;0.52;;;0.40;;
83288;SDS011;73193;50.866;5.420;2024-03-02T05:11:23;1.77;;;0.30;;
83288;SDS011;73193;50.866;5.420;2024-03-02T05:13:26;2.88;;;0.30;;
83288;SDS011;73193;50.866;5.420;2024-03-02T05:14:57;1.13;;;0.30;;
83288;SDS011;73193;50.866;5.420;2024-03-02T05:16:28;0.40;;;0.10;;
83288;SDS011;73193;50.866;5.420;2024-03-02T05:17:58;1.98;;;0.30;;
83288;SDS011;73193;50.866;5.420;2024-03-02T05:19:30;0.40;;;0.30;;
83288;SDS011;73193;50.866;5.420;2024-03-02T05:21:00;0.28;;;0.22;;
83288;SDS011;73193;50.866;5.420;2024-03-02T05:22:31;0.60;;;0.22;;
83288;SDS011;73193;50.866;5.420;2024-03-02T05:24:03;0.70;;;0.10;;
83288;SDS011;73193;50.866;5.420;2024-03-02T05:25:34;1.15;;;0.30;;
83288;SDS011;73193;50.866;5.420;2024-03-02T05:27:05;0.55;;;0.20;;
83288;SDS011;73193;50.866;5.420;2024-03-02T05:28:37;3.53;;;0.32;;
83288;SDS011;73193;50.866;5.420;2024-03-02T05:30:08;0.82;;;0.20;;
83288;SDS011;73193;50.866;5.420;2024-03-02T05:31:39;0.82;;;0.25;;
83288;SDS011;73193;50.866;5.420;2024-03-02T05:33:10;1.73;;;0.63;;
83288;SDS011;73193;50.866;5.420;2024-03-02T05:34:41;1.02;;;0.38;;
83288;SDS011;73193;50.866;5.420;2024-03-02T05:36:11;2.58;;;0.40;;
83288;SDS011;73193;50.866;5.420;2024-03-02T05:37:42;2.75;;;0.47;;
83288;SDS011;73193;50.866;5.420;2024-03-02T05:39:13;1.35;;;0.30;;
83288;SDS011;73193;50.866;5.420;2024-03-02T05:40:43;1.17;;;0.20;;
83288;SDS011;73193;50.866;5.420;2024-03-02T05:42:14;0.47;;;0.25;;
83288;SDS011;73193;50.866;5.420;2024-03-02T05:43:46;2.42;;;0.30;;
83288;SDS011;73193;50.866;5.420;2024-03-02T05:45:17;1.75;;;0.28;;
83288;SDS011;73193;50.866;5.420;2024-03-02T05:46:48;1.85;;;0.20;;
83288;SDS011;73193;50.866;5.420;2024-03-02T05:48:18;0.38;;;0.10;;
83288;SDS011;73193;50.866;5.420;2024-03-02T05:49:49;1.27;;;0.20;;
83288;SDS011;73193;50.866;5.420;2024-03-02T05:51:20;1.73;;;0.30;;
83288;SDS011;73193;50.866;5.420;2024-03-02T05:52:50;3.05;;;0.30;;
83288;SDS011;73193;50.866;5.420;2024-03-02T05:54:21;1.48;;;0.90;;
83288;SDS011;73193;50.866;5.420;2024-03-02T05:55:52;0.73;;;0.30;;
83288;SDS011;73193;50.866;5.420;2024-03-02T05:57:25;0.52;;;0.35;;
83288;SDS011;73193;50.866;5.420;2024-03-02T05:59:17;0.63;;;0.30;;
83288;SDS011;73193;50.866;5.420;2024-03-02T06:00:48;2.75;;;0.50;;
83288;SDS011;73193;50.866;5.420;2024-03-02T06:02:19;2.08;;;0.47;;
83288;SDS011;73193;50.866;5.420;2024-03-02T06:03:49;0.95;;;0.43;;
83288;SDS011;73193;50.866;5.420;2024-03-02T06:05:20;2.80;;;0.47;;
83288;SDS011;73193;50.866;5.420;2024-03-02T06:06:50;0.60;;;0.30;;
83288;SDS011;73193;50.866;5.420;2024-03-02T06:08:21;0.80;;;0.25;;
83288;SDS011;73193;50.866;5.420;2024-03-02T06:09:52;2.30;;;0.45;;
83288;SDS011;73193;50.866;5.420;2024-03-02T06:11:22;1.50;;;0.30;;
83288;SDS011;73193;50.866;5.420;2024-03-02T06:12:53;1.58;;;0.28;;
83288;SDS011;73193;50.866;5.420;2024-03-02T06:14:24;1.90;;;0.60;;
83288;SDS011;73193;50.866;5.420;2024-03-02T06:15:54;2.05;;;0.55;;
83288;SDS011;73193;50.866;5.420;2024-03-02T06:17:25;1.55;;;0.55;;
83288;SDS011;73193;50.866;5.420;2024-03-02T06:18:56;0.65;;;0.30;;
83288;SDS011;73193;50.866;5.420;2024-03-02T06:20:29;2.03;;;0.50;;
83288;SDS011;73193;50.866;5.420;2024-03-02T06:22:01;1.40;;;0.50;;
83288;SDS011;73193;50.866;5.420;2024-03-02T06:23:31;3.40;;;0.40;;
83288;SDS011;73193;50.866;5.420;2024-03-02T06:25:02;0.98;;;0.45;;
83288;SDS011;73193;50.866;5.420;2024-03-02T06:26:33;1.48;;;0.30;;
83288;SDS011;73193;50.866;5.420;2024-03-02T06:28:04;1.88;;;0.60;;
83288;SDS011;73193;50.866;5.420;2024-03-02T06:29:35;1.30;;;0.40;;
83288;SDS011;73193;50.866;5.420;2024-03-02T06:31:05;1.13;;;0.50;;
83288;SDS011;73193;50.866;5.420;2024-03-02T06:32:36;2.00;;;0.80;;
83288;SDS011;73193;50.866;5.420;2024-03-02T06:34:07;3.42;;;1.27;;
83288;SDS011;73193;50.866;5.420;2024-03-02T06:37:09;2.33;;;1.17;;
83288;SDS011;73193;50.866;5.420;2024-03-02T06:38:39;1.98;;;0.65;;
83288;SDS011;73193;50.866;5.420;2024-03-02T06:40:10;1.60;;;0.40;;
83288;SDS011;73193;50.866;5.420;2024-03-02T06:41:41;2.47;;;0.55;;
83288;SDS011;73193;50.866;5.420;2024-03-02T06:43:17;5.97;;;0.73;;
83288;SDS011;73193;50.866;5.420;2024-03-02T06:44:47;1.88;;;0.50;;
83288;SDS011;73193;50.866;5.420;2024-03-02T06:46:18;1.48;;;0.43;;
83288;SDS011;73193;50.866;5.420;2024-03-02T06:47:49;2.47;;;0.50;;
83288;SDS011;73193;50.866;5.420;2024-03-02T06:49:19;0.73;;;0.47;;
83288;SDS011;73193;50.866;5.420;2024-03-02T06:50:50;2.58;;;0.55;;
83288;SDS011;73193;50.866;5.420;2024-03-02T06:52:22;1.20;;;0.50;;
83288;SDS011;73193;50.866;5.420;2024-03-02T06:53:52;1.17;;;0.43;;
83288;SDS011;73193;50.866;5.420;2024-03-02T06:55:23;1.88;;;0.60;;
83288;SDS011;73193;50.866;5.420;2024-03-02T06:56:54;0.73;;;0.20;;
83288;SDS011;73193;50.866;5.420;2024-03-02T06:58:25;1.45;;;0.30;;
83288;SDS011;73193;50.866;5.420;2024-03-02T06:59:55;0.45;;;0.30;;
83288;SDS011;73193;50.866;5.420;2024-03-02T07:01:28;3.40;;;0.43;;
83288;SDS011;73193;50.866;5.420;2024-03-02T07:02:59;1.85;;;0.35;;
83288;SDS011;73193;50.866;5.420;2024-03-02T07:04:29;0.77;;;0.30;;
83288;SDS011;73193;50.866;5.420;2024-03-02T07:06:00;0.93;;;0.30;;
83288;SDS011;73193;50.866;5.420;2024-03-02T07:07:31;0.45;;;0.20;;
83288;SDS011;73193;50.866;5.420;2024-03-02T07:09:01;3.35;;;0.50;;
83288;SDS011;73193;50.866;5.420;2024-03-02T07:10:32;2.20;;;0.47;;
83288;SDS011;73193;50.866;5.420;2024-03-02T07:12:03;1.85;;;0.35;;
83288;SDS011;73193;50.866;5.420;2024-03-02T07:13:34;0.77;;;0.25;;
83288;SDS011;73193;50.866;5.420;2024-03-02T07:15:05;1.05;;;0.38;;
83288;SDS011;73193;50.866;5.420;2024-03-02T07:16:37;1.45;;;0.40;;
83288;SDS011;73193;50.866;5.420;2024-03-02T07:18:08;3.45;;;0.60;;
83288;SDS011;73193;50.866;5.420;2024-03-02T07:19:39;2.03;;;0.30;;
83288;SDS011;73193;50.866;5.420;2024-03-02T07:21:09;2.00;;;0.40;;
83288;SDS011;73193;50.866;5.420;2024-03-02T07:22:40;2.63;;;0.40;;
83288;SDS011;73193;50.866;5.420;2024-03-02T07:24:11;2.22;;;0.30;;
83288;SDS011;73193;50.866;5.420;2024-03-02T07:25:43;0.57;;;0.30;;
83288;SDS011;73193;50.866;5.420;2024-03-02T07:27:14;2.28;;;0.70;;
83288;SDS011;73193;50.866;5.420;2024-03-02T07:28:45;3.95;;;1.35;;
83288;SDS011;73193;50.866;5.420;2024-03-02T07:30:17;4.47;;;1.90;;
83288;SDS011;73193;50.866;5.420;2024-03-02T07:31:48;4.38;;;1.65;;
83288;SDS011;73193;50.866;5.420;2024-03-02T07:33:19;2.53;;;0.98;;
83288;SDS011;73193;50.866;5.420;2024-03-02T07:34:51;2.00;;;0.60;;
83288;SDS011;73193;50.866;5.420;2024-03-02T07:36:22;1.02;;;0.40;;
83288;SDS011;73193;50.866;5.420;2024-03-02T07:37:53;1.35;;;0.35;;
83288;SDS011;73193;50.866;5.420;2024-03-02T07:39:24;3.45;;;0.85;;
83288;SDS011;73193;50.866;5.420;2024-03-02T07:40:55;2.75;;;0.70;;
83288;SDS011;73193;50.866;5.420;2024-03-02T07:42:26;3.88;;;0.40;;
83288;SDS011;73193;50.866;5.420;2024-03-02T07:43:56;1.92;;;0.65;;
83288;SDS011;73193;50.866;5.420;2024-03-02T07:45:27;1.10;;;0.30;;
83288;SDS011;73193;50.866;5.420;2024-03-02T07:46:57;0.60;;;0.30;;
83288;SDS011;73193;50.866;5.420;2024-03-02T07:48:28;1.67;;;0.63;;
83288;SDS011;73193;50.866;5.420;2024-03-02T07:49:59;1.60;;;0.57;;
83288;SDS011;73193;50.866;5.420;2024-03-02T07:51:29;0.60;;;0.35;;
83288;SDS011;73193;50.866;5.420;2024-03-02T07:53:00;0.68;;;0.32;;
83288;SDS011;73193;50.866;5.420;2024-03-02T07:54:31;1.35;;;0.52;;
83288;SDS011;73193;50.866;5.420;2024-03-02T07:56:02;1.52;;;0.30;;
83288;SDS011;73193;50.866;5.420;2024-03-02T07:57:33;1.00;;;0.40;;
83288;SDS011;73193;50.866;5.420;2024-03-02T07:59:04;2.28;;;0.43;;
83288;SDS011;73193;50.866;5.420;2024-03-02T08:00:35;0.90;;;0.32;;
83288;SDS011;73193;50.866;5.420;2024-03-02T08:02:06;2.22;;;0.45;;
83288;SDS011;73193;50.866;5.420;2024-03-02T08:03:37;2.75;;;0.50;;
83288;SDS011;73193;50.866;5.420;2024-03-02T08:05:08;0.93;;;0.40;;
83288;SDS011;73193;50.866;5.420;2024-03-02T08:06:39;2.85;;;0.70;;
83288;SDS011;73193;50.866;5.420;2024-03-02T08:08:09;3.70;;;0.70;;
83288;SDS011;73193;50.866;5.420;2024-03-02T08:09:41;0.93;;;0.28;;
83288;SDS011;73193;50.866;5.420;2024-03-02T08:11:12;1.10;;;0.20;;
83288;SDS011;73193;50.866;5.420;2024-03-02T08:12:43;3.10;;;0.45;;
83288;SDS011;73193;50.866;5.420;2024-03-02T08:14:13;1.15;;;0.25;;
83288;SDS011;73193;50.866;5.420;2024-03-02T08:15:44;0.47;;;0.20;;
83288;SDS011;73193;50.866;5.420;2024-03-02T08:17:15;0.95;;;0.30;;
83288;SDS011;73193;50.866;5.420;2024-03-02T08:18:46;3.50;;;0.52;;
83288;SDS011;73193;50.866;5.420;2024-03-02T08:20:20;1.35;;;0.30;;
83288;SDS011;73193;50.866;5.420;2024-03-02T08:21:51;1.40;;;0.63;;
83288;SDS011;73193;50.866;5.420;2024-03-02T08:23:22;1.13;;;0.30;;
83288;SDS011;73193;50.866;5.420;2024-03-02T08:24:52;1.85;;;0.50;;
83288;SDS011;73193;50.866;5.420;2024-03-02T08:26:24;0.82;;;0.60;;
83288;SDS011;73193;50.866;5.420;2024-03-02T08:27:55;0.90;;;0.55;;
83288;SDS011;73193;50.866;5.420;2024-03-02T08:30:57;2.20;;;0.52;;
83288;SDS011;73193;50.866;5.420;2024-03-02T08:32:28;4.15;;;0.43;;
83288;SDS011;73193;50.866;5.420;2024-03-02T08:33:59;2.25;;;0.50;;
83288;SDS011;73193;50.866;5.420;2024-03-02T08:35:30;2.10;;;0.50;;
83288;SDS011;73193;50.866;5.420;2024-03-02T08:37:05;1.25;;;0.47;;
83288;SDS011;73193;50.866;5.420;2024-03-02T08:38:36;1.65;;;0.50;;
83288;SDS011;73193;50.866;5.420;2024-03-02T08:40:08;2.63;;;0.63;;
83288;SDS011;73193;50.866;5.420;2024-03-02T08:41:39;0.60;;;0.30;;
83288;SDS011;73193;50.866;5.420;2024-03-02T08:43:09;1.98;;;0.35;;
83288;SDS011;73193;50.866;5.420;2024-03-02T08:44:41;1.95;;;0.40;;
83288;SDS011;73193;50.866;5.420;2024-03-02T08:46:12;3.55;;;0.70;;
83288;SDS011;73193;50.866;5.420;2024-03-02T08:47:43;2.17;;;0.50;;
83288;SDS011;73193;50.866;5.420;2024-03-02T08:49:14;3.38;;;0.60;;
83288;SDS011;73193;50.866;5.420;2024-03-02T08:50:44;2.63;;;0.40;;
83288;SDS011;73193;50.866;5.420;2024-03-02T08:52:15;1.65;;;0.40;;
83288;SDS011;73193;50.866;5.420;2024-03-02T08:53:46;0.80;;;0.50;;
83288;SDS011;73193;50.866;5.420;2024-03-02T08:55:16;3.03;;;0.57;;
83288;SDS011;73193;50.866;5.420;2024-03-02T08:56:50;2.22;;;0.55;;
83288;SDS011;73193;50.866;5.420;2024-03-02T08:58:20;1.77;;;0.40;;
83288;SDS011;73193;50.866;5.420;2024-03-02T08:59:51;1.20;;;0.20;;
83288;SDS011;73193;50.866;5.420;2024-03-02T09:01:22;4.53;;;0.65;;
83288;SDS011;73193;50.866;5.420;2024-03-02T09:02:53;1.63;;;0.25;;
83288;SDS011;73193;50.866;5.420;2024-03-02T09:04:23;2.03;;;0.55;;
83288;SDS011;73193;50.866;5.420;2024-03-02T09:05:54;5.05;;;0.88;;
83288;SDS011;73193;50.866;5.420;2024-03-02T09:07:25;1.40;;;0.50;;
83288;SDS011;73193;50.866;5.420;2024-03-02T09:08:55;2.33;;;0.30;;
83288;SDS011;73193;50.866;5.420;2024-03-02T09:10:26;2.10;;;0.63;;
83288;SDS011;73193;50.866;5.420;2024-03-02T09:11:56;2.17;;;0.60;;
83288;SDS011;73193;50.866;5.420;2024-03-02T09:13:27;1.25;;;0.28;;
83288;SDS011;73193;50.866;5.420;2024-03-02T09:14:59;2.15;;;0.40;;
83288;SDS011;73193;50.866;5.420;2024-03-02T09:16:31;1.15;;;0.60;;
83288;SDS011;73193;50.866;5.420;2024-03-02T09:18:01;1.75;;;0.38;;
83288;SDS011;73193;50.866;5.420;2024-03-02T09:19:32;1.65;;;0.32;;
83288;SDS011;73193;50.866;5.420;2024-03-02T09:21:03;0.77;;;0.30;;